KESC

Delta County Airport

Airport
ICAO code
KESC
IATA Code
ESC
Summary
ICAO Region
NAM
ICAO Territory
Location

Escanaba, Michigan

Serving
Escanaba
Elevation
609 ft
Coordinates
45° 43' 28" N , 87° 5' 41" W
KCC
Airport CFIT
Altimeter Temperature Error Correction
Airport GND
Aircraft Ground De/Anti Icing
Metar
KESC 191056Z AUTO 26006KT 10SM CLR M01/M01 A2992 RMK AO2 SLP139 T10111011 FZRANO $

Description

Delta County Airport is a public use airport located 2 nm southwest of the central business district of Escanaba, a city in Delta County, Michigan.

Airport map

Aerial View

SKYbrary Partners:

Safety knowledge contributed by: